sensor_id;sensor_type;location;lat;lon;timestamp;P1;durP1;ratioP1;P2;durP2;ratioP2
12980;SDS011;6555;50.468;8.480;2023-04-23T00:03:21;0.83;;;0.83;;
12980;SDS011;6555;50.468;8.480;2023-04-23T00:08:26;1.07;;;1.00;;
12980;SDS011;6555;50.468;8.480;2023-04-23T00:13:34;0.90;;;0.90;;
12980;SDS011;6555;50.468;8.480;2023-04-23T00:18:38;1.07;;;1.03;;
12980;SDS011;6555;50.468;8.480;2023-04-23T00:23:42;1.07;;;0.97;;
12980;SDS011;6555;50.468;8.480;2023-04-23T00:28:47;2.67;;;1.13;;
12980;SDS011;6555;50.468;8.480;2023-04-23T00:33:51;1.07;;;0.97;;
12980;SDS011;6555;50.468;8.480;2023-04-23T00:38:55;1.20;;;1.10;;
12980;SDS011;6555;50.468;8.480;2023-04-23T00:44:00;1.33;;;1.07;;
12980;SDS011;6555;50.468;8.480;2023-04-23T00:49:03;1.20;;;1.10;;
12980;SDS011;6555;50.468;8.480;2023-04-23T00:54:06;1.10;;;1.00;;
12980;SDS011;6555;50.468;8.480;2023-04-23T00:59:11;1.00;;;1.00;;
12980;SDS011;6555;50.468;8.480;2023-04-23T01:04:15;1.40;;;1.30;;
12980;SDS011;6555;50.468;8.480;2023-04-23T01:09:21;1.83;;;1.43;;
12980;SDS011;6555;50.468;8.480;2023-04-23T01:14:30;1.70;;;1.60;;
12980;SDS011;6555;50.468;8.480;2023-04-23T01:19:36;1.43;;;1.30;;
12980;SDS011;6555;50.468;8.480;2023-04-23T01:24:42;1.40;;;1.30;;
12980;SDS011;6555;50.468;8.480;2023-04-23T01:29:46;1.50;;;1.30;;
12980;SDS011;6555;50.468;8.480;2023-04-23T01:34:51;1.37;;;1.20;;
12980;SDS011;6555;50.468;8.480;2023-04-23T01:39:57;1.60;;;1.40;;
12980;SDS011;6555;50.468;8.480;2023-04-23T01:45:01;1.80;;;1.30;;
12980;SDS011;6555;50.468;8.480;2023-04-23T01:50:08;1.30;;;1.20;;
12980;SDS011;6555;50.468;8.480;2023-04-23T01:55:16;1.40;;;1.30;;
12980;SDS011;6555;50.468;8.480;2023-04-23T02:00:21;1.63;;;1.40;;
12980;SDS011;6555;50.468;8.480;2023-04-23T02:05:32;1.73;;;1.63;;
12980;SDS011;6555;50.468;8.480;2023-04-23T02:10:39;1.27;;;1.17;;
12980;SDS011;6555;50.468;8.480;2023-04-23T02:15:42;1.33;;;1.23;;
12980;SDS011;6555;50.468;8.480;2023-04-23T02:20:46;1.57;;;1.47;;
12980;SDS011;6555;50.468;8.480;2023-04-23T02:25:51;1.70;;;1.60;;
12980;SDS011;6555;50.468;8.480;2023-04-23T02:30:54;1.83;;;1.30;;
12980;SDS011;6555;50.468;8.480;2023-04-23T02:35:57;1.53;;;1.43;;
12980;SDS011;6555;50.468;8.480;2023-04-23T02:41:03;1.80;;;1.70;;
12980;SDS011;6555;50.468;8.480;2023-04-23T02:46:06;1.70;;;1.60;;
12980;SDS011;6555;50.468;8.480;2023-04-23T02:51:11;1.73;;;1.40;;
12980;SDS011;6555;50.468;8.480;2023-04-23T02:56:16;2.73;;;1.30;;
12980;SDS011;6555;50.468;8.480;2023-04-23T03:01:20;1.63;;;1.50;;
12980;SDS011;6555;50.468;8.480;2023-04-23T03:06:23;1.40;;;1.30;;
12980;SDS011;6555;50.468;8.480;2023-04-23T03:11:28;1.63;;;1.27;;
12980;SDS011;6555;50.468;8.480;2023-04-23T03:16:35;1.43;;;1.33;;
12980;SDS011;6555;50.468;8.480;2023-04-23T03:21:40;1.03;;;1.03;;
12980;SDS011;6555;50.468;8.480;2023-04-23T03:26:44;1.20;;;1.10;;
12980;SDS011;6555;50.468;8.480;2023-04-23T03:31:49;1.60;;;1.40;;
12980;SDS011;6555;50.468;8.480;2023-04-23T03:36:53;1.30;;;1.20;;
12980;SDS011;6555;50.468;8.480;2023-04-23T03:41:58;1.27;;;1.17;;
12980;SDS011;6555;50.468;8.480;2023-04-23T03:47:04;1.20;;;1.10;;
12980;SDS011;6555;50.468;8.480;2023-04-23T03:52:09;1.40;;;1.30;;
12980;SDS011;6555;50.468;8.480;2023-04-23T03:57:15;1.00;;;1.00;;
12980;SDS011;6555;50.468;8.480;2023-04-23T04:02:51;1.20;;;1.10;;
12980;SDS011;6555;50.468;8.480;2023-04-23T04:07:56;1.17;;;1.10;;
12980;SDS011;6555;50.468;8.480;2023-04-23T04:13:09;1.27;;;1.17;;
12980;SDS011;6555;50.468;8.480;2023-04-23T04:18:13;1.40;;;1.30;;
12980;SDS011;6555;50.468;8.480;2023-04-23T04:23:16;1.20;;;1.10;;
12980;SDS011;6555;50.468;8.480;2023-04-23T04:28:28;1.00;;;1.00;;
12980;SDS011;6555;50.468;8.480;2023-04-23T04:33:36;1.43;;;1.30;;
12980;SDS011;6555;50.468;8.480;2023-04-23T04:38:43;1.03;;;1.03;;
12980;SDS011;6555;50.468;8.480;2023-04-23T04:43:49;1.53;;;1.43;;
12980;SDS011;6555;50.468;8.480;2023-04-23T04:48:53;2.20;;;1.20;;
12980;SDS011;6555;50.468;8.480;2023-04-23T04:53:56;1.40;;;1.30;;
12980;SDS011;6555;50.468;8.480;2023-04-23T04:59:01;1.40;;;1.30;;
12980;SDS011;6555;50.468;8.480;2023-04-23T05:04:07;1.20;;;1.10;;
12980;SDS011;6555;50.468;8.480;2023-04-23T05:09:11;1.40;;;1.30;;
12980;SDS011;6555;50.468;8.480;2023-04-23T05:14:16;1.67;;;1.57;;
12980;SDS011;6555;50.468;8.480;2023-04-23T05:19:19;0.80;;;0.80;;
12980;SDS011;6555;50.468;8.480;2023-04-23T05:24:23;1.30;;;1.20;;
12980;SDS011;6555;50.468;8.480;2023-04-23T05:29:28;0.90;;;0.90;;
12980;SDS011;6555;50.468;8.480;2023-04-23T05:34:31;1.13;;;1.07;;
12980;SDS011;6555;50.468;8.480;2023-04-23T05:39:34;1.00;;;1.00;;
12980;SDS011;6555;50.468;8.480;2023-04-23T05:44:39;1.33;;;1.20;;
12980;SDS011;6555;50.468;8.480;2023-04-23T05:49:43;1.20;;;1.10;;
12980;SDS011;6555;50.468;8.480;2023-04-23T05:54:49;1.30;;;1.20;;
12980;SDS011;6555;50.468;8.480;2023-04-23T05:59:57;1.43;;;1.03;;
12980;SDS011;6555;50.468;8.480;2023-04-23T06:05:00;1.10;;;1.00;;
12980;SDS011;6555;50.468;8.480;2023-04-23T06:10:05;1.20;;;1.00;;
12980;SDS011;6555;50.468;8.480;2023-04-23T06:15:12;1.80;;;1.20;;
12980;SDS011;6555;50.468;8.480;2023-04-23T06:20:18;1.23;;;1.13;;
12980;SDS011;6555;50.468;8.480;2023-04-23T06:25:21;1.20;;;1.10;;
12980;SDS011;6555;50.468;8.480;2023-04-23T06:30:30;1.23;;;1.13;;
12980;SDS011;6555;50.468;8.480;2023-04-23T06:35:37;1.50;;;1.40;;
12980;SDS011;6555;50.468;8.480;2023-04-23T06:40:44;1.20;;;1.10;;
12980;SDS011;6555;50.468;8.480;2023-04-23T06:45:58;1.40;;;1.30;;
12980;SDS011;6555;50.468;8.480;2023-04-23T06:51:51;1.50;;;1.40;;
12980;SDS011;6555;50.468;8.480;2023-04-23T06:56:57;2.13;;;1.50;;
12980;SDS011;6555;50.468;8.480;2023-04-23T07:02:02;1.73;;;1.63;;
12980;SDS011;6555;50.468;8.480;2023-04-23T07:07:06;2.10;;;1.93;;
12980;SDS011;6555;50.468;8.480;2023-04-23T07:12:09;2.37;;;1.60;;
12980;SDS011;6555;50.468;8.480;2023-04-23T07:17:14;1.50;;;1.40;;
12980;SDS011;6555;50.468;8.480;2023-04-23T07:22:18;2.00;;;1.83;;
12980;SDS011;6555;50.468;8.480;2023-04-23T07:27:21;2.03;;;1.67;;
12980;SDS011;6555;50.468;8.480;2023-04-23T07:32:26;1.90;;;1.80;;
12980;SDS011;6555;50.468;8.480;2023-04-23T07:37:29;2.00;;;1.90;;
12980;SDS011;6555;50.468;8.480;2023-04-23T07:42:33;2.17;;;1.97;;
12980;SDS011;6555;50.468;8.480;2023-04-23T07:47:38;1.80;;;1.70;;
12980;SDS011;6555;50.468;8.480;2023-04-23T07:52:47;1.50;;;1.33;;
12980;SDS011;6555;50.468;8.480;2023-04-23T07:57:50;1.50;;;1.35;;
12980;SDS011;6555;50.468;8.480;2023-04-23T08:02:58;1.70;;;1.60;;
12980;SDS011;6555;50.468;8.480;2023-04-23T08:08:01;1.50;;;1.40;;
12980;SDS011;6555;50.468;8.480;2023-04-23T08:13:05;1.60;;;1.50;;
12980;SDS011;6555;50.468;8.480;2023-04-23T08:18:10;1.95;;;1.60;;
12980;SDS011;6555;50.468;8.480;2023-04-23T08:23:13;1.42;;;1.33;;
12980;SDS011;6555;50.468;8.480;2023-04-23T08:28:19;2.63;;;1.50;;
12980;SDS011;6555;50.468;8.480;2023-04-23T08:33:24;1.50;;;1.40;;
12980;SDS011;6555;50.468;8.480;2023-04-23T08:38:29;1.65;;;1.30;;
12980;SDS011;6555;50.468;8.480;2023-04-23T08:43:37;2.20;;;2.00;;
12980;SDS011;6555;50.468;8.480;2023-04-23T08:48:47;1.55;;;1.40;;
12980;SDS011;6555;50.468;8.480;2023-04-23T08:53:55;1.88;;;1.63;;
12980;SDS011;6555;50.468;8.480;2023-04-23T08:59:00;1.83;;;1.63;;
12980;SDS011;6555;50.468;8.480;2023-04-23T09:04:09;1.60;;;1.48;;
12980;SDS011;6555;50.468;8.480;2023-04-23T09:09:17;2.03;;;1.80;;
12980;SDS011;6555;50.468;8.480;2023-04-23T09:14:24;2.00;;;1.63;;
12980;SDS011;6555;50.468;8.480;2023-04-23T09:19:29;1.70;;;1.60;;
12980;SDS011;6555;50.468;8.480;2023-04-23T09:24:40;1.80;;;1.63;;
12980;SDS011;6555;50.468;8.480;2023-04-23T09:29:43;2.42;;;1.77;;
12980;SDS011;6555;50.468;8.480;2023-04-23T09:34:52;1.58;;;1.45;;
12980;SDS011;6555;50.468;8.480;2023-04-23T09:39:58;1.70;;;1.60;;
12980;SDS011;6555;50.468;8.480;2023-04-23T09:45:05;1.73;;;1.60;;
12980;SDS011;6555;50.468;8.480;2023-04-23T09:50:12;1.95;;;1.80;;
12980;SDS011;6555;50.468;8.480;2023-04-23T09:55:25;2.35;;;1.63;;
12980;SDS011;6555;50.468;8.480;2023-04-23T10:00:33;1.85;;;1.75;;
12980;SDS011;6555;50.468;8.480;2023-04-23T10:05:39;1.95;;;1.40;;
12980;SDS011;6555;50.468;8.480;2023-04-23T10:10:49;1.42;;;1.33;;
12980;SDS011;6555;50.468;8.480;2023-04-23T10:16:12;1.60;;;1.50;;
12980;SDS011;6555;50.468;8.480;2023-04-23T10:21:25;1.45;;;1.35;;
12980;SDS011;6555;50.468;8.480;2023-04-23T10:26:55;1.75;;;1.58;;
12980;SDS011;6555;50.468;8.480;2023-04-23T10:32:02;1.90;;;1.40;;
12980;SDS011;6555;50.468;8.480;2023-04-23T10:37:09;2.47;;;1.70;;
12980;SDS011;6555;50.468;8.480;2023-04-23T10:42:13;2.08;;;1.80;;
12980;SDS011;6555;50.468;8.480;2023-04-23T10:47:18;1.60;;;1.50;;
12980;SDS011;6555;50.468;8.480;2023-04-23T10:52:27;2.03;;;1.50;;
12980;SDS011;6555;50.468;8.480;2023-04-23T10:57:39;2.60;;;1.50;;
12980;SDS011;6555;50.468;8.480;2023-04-23T11:03:03;1.75;;;1.45;;
12980;SDS011;6555;50.468;8.480;2023-04-23T11:08:08;2.05;;;1.70;;
12980;SDS011;6555;50.468;8.480;2023-04-23T11:13:23;1.83;;;1.60;;
12980;SDS011;6555;50.468;8.480;2023-04-23T11:18:27;2.35;;;1.60;;
12980;SDS011;6555;50.468;8.480;2023-04-23T11:23:32;2.00;;;1.80;;
12980;SDS011;6555;50.468;8.480;2023-04-23T11:28:44;2.80;;;1.50;;
12980;SDS011;6555;50.468;8.480;2023-04-23T11:39:25;1.30;;;1.20;;
12980;SDS011;6555;50.468;8.480;2023-04-23T11:44:32;1.17;;;1.05;;
12980;SDS011;6555;50.468;8.480;2023-04-23T11:49:42;1.40;;;1.30;;
12980;SDS011;6555;50.468;8.480;2023-04-23T11:54:49;1.30;;;1.20;;
12980;SDS011;6555;50.468;8.480;2023-04-23T11:59:56;2.28;;;1.25;;
12980;SDS011;6555;50.468;8.480;2023-04-23T12:05:03;1.25;;;1.00;;
12980;SDS011;6555;50.468;8.480;2023-04-23T12:10:11;1.63;;;1.40;;
12980;SDS011;6555;50.468;8.480;2023-04-23T12:15:19;2.50;;;1.40;;
12980;SDS011;6555;50.468;8.480;2023-04-23T12:20:25;1.75;;;1.20;;
12980;SDS011;6555;50.468;8.480;2023-04-23T12:25:32;2.58;;;1.33;;
12980;SDS011;6555;50.468;8.480;2023-04-23T12:30:41;2.28;;;1.00;;
12980;SDS011;6555;50.468;8.480;2023-04-23T12:35:48;1.45;;;1.30;;
12980;SDS011;6555;50.468;8.480;2023-04-23T12:40:56;1.63;;;1.20;;
12980;SDS011;6555;50.468;8.480;2023-04-23T12:46:00;1.30;;;1.20;;
12980;SDS011;6555;50.468;8.480;2023-04-23T12:51:03;1.20;;;1.10;;
12980;SDS011;6555;50.468;8.480;2023-04-23T12:56:09;1.48;;;1.10;;
12980;SDS011;6555;50.468;8.480;2023-04-23T13:01:12;2.03;;;1.30;;
12980;SDS011;6555;50.468;8.480;2023-04-23T13:06:17;2.45;;;1.40;;
12980;SDS011;6555;50.468;8.480;2023-04-23T13:11:22;1.55;;;1.45;;
12980;SDS011;6555;50.468;8.480;2023-04-23T13:16:28;1.20;;;1.10;;
12980;SDS011;6555;50.468;8.480;2023-04-23T13:21:31;1.63;;;1.10;;
12980;SDS011;6555;50.468;8.480;2023-04-23T13:26:39;1.27;;;1.17;;
12980;SDS011;6555;50.468;8.480;2023-04-23T13:31:42;1.58;;;1.23;;
12980;SDS011;6555;50.468;8.480;2023-04-23T13:36:46;1.13;;;1.02;;
12980;SDS011;6555;50.468;8.480;2023-04-23T13:41:53;1.10;;;1.00;;
12980;SDS011;6555;50.468;8.480;2023-04-23T13:47:10;1.20;;;1.10;;
12980;SDS011;6555;50.468;8.480;2023-04-23T13:52:14;1.27;;;1.15;;
12980;SDS011;6555;50.468;8.480;2023-04-23T13:57:20;1.48;;;1.27;;
12980;SDS011;6555;50.468;8.480;2023-04-23T14:02:24;2.38;;;1.20;;
12980;SDS011;6555;50.468;8.480;2023-04-23T14:07:28;1.73;;;1.20;;
12980;SDS011;6555;50.468;8.480;2023-04-23T14:12:32;1.52;;;1.08;;
12980;SDS011;6555;50.468;8.480;2023-04-23T14:17:36;1.00;;;1.00;;
12980;SDS011;6555;50.468;8.480;2023-04-23T14:22:49;2.47;;;1.30;;
12980;SDS011;6555;50.468;8.480;2023-04-23T14:28:00;2.67;;;1.60;;
12980;SDS011;6555;50.468;8.480;2023-04-23T14:33:25;1.75;;;1.63;;
12980;SDS011;6555;50.468;8.480;2023-04-23T14:38:28;1.35;;;1.20;;
12980;SDS011;6555;50.468;8.480;2023-04-23T14:43:33;1.10;;;1.02;;
12980;SDS011;6555;50.468;8.480;2023-04-23T14:48:38;2.72;;;2.50;;
12980;SDS011;6555;50.468;8.480;2023-04-23T14:53:42;1.95;;;1.75;;
12980;SDS011;6555;50.468;8.480;2023-04-23T14:58:46;1.27;;;1.13;;
12980;SDS011;6555;50.468;8.480;2023-04-23T15:03:51;1.60;;;1.40;;
12980;SDS011;6555;50.468;8.480;2023-04-23T15:08:56;2.15;;;1.95;;
12980;SDS011;6555;50.468;8.480;2023-04-23T15:14:01;1.92;;;1.52;;
12980;SDS011;6555;50.468;8.480;2023-04-23T15:19:09;1.60;;;1.30;;
12980;SDS011;6555;50.468;8.480;2023-04-23T15:24:12;2.42;;;1.60;;
12980;SDS011;6555;50.468;8.480;2023-04-23T15:29:18;1.23;;;1.13;;
12980;SDS011;6555;50.468;8.480;2023-04-23T15:34:22;0.93;;;0.90;;
12980;SDS011;6555;50.468;8.480;2023-04-23T15:39:25;1.13;;;0.90;;
12980;SDS011;6555;50.468;8.480;2023-04-23T15:44:43;1.27;;;1.17;;
12980;SDS011;6555;50.468;8.480;2023-04-23T16:16:34;0.98;;;0.95;;
12980;SDS011;6555;50.468;8.480;2023-04-23T16:36:42;1.33;;;1.00;;
12980;SDS011;6555;50.468;8.480;2023-04-23T16:42:39;0.98;;;0.98;;
12980;SDS011;6555;50.468;8.480;2023-04-23T16:54:29;3.35;;;1.10;;
12980;SDS011;6555;50.468;8.480;2023-04-23T17:00:47;1.52;;;1.40;;
12980;SDS011;6555;50.468;8.480;2023-04-23T17:06:23;1.10;;;1.02;;
12980;SDS011;6555;50.468;8.480;2023-04-23T17:11:48;1.27;;;1.20;;
12980;SDS011;6555;50.468;8.480;2023-04-23T17:16:58;1.15;;;0.70;;
12980;SDS011;6555;50.468;8.480;2023-04-23T17:22:30;0.90;;;0.90;;
12980;SDS011;6555;50.468;8.480;2023-04-23T17:28:26;1.53;;;1.10;;
12980;SDS011;6555;50.468;8.480;2023-04-23T17:33:53;1.40;;;0.77;;
12980;SDS011;6555;50.468;8.480;2023-04-23T17:39:44;0.60;;;0.60;;
12980;SDS011;6555;50.468;8.480;2023-04-23T17:51:12;0.43;;;0.43;;
12980;SDS011;6555;50.468;8.480;2023-04-23T18:03:19;1.90;;;0.60;;
12980;SDS011;6555;50.468;8.480;2023-04-23T19:06:51;0.43;;;0.43;;
12980;SDS011;6555;50.468;8.480;2023-04-23T19:39:20;0.50;;;0.50;;
12980;SDS011;6555;50.468;8.480;2023-04-23T19:44:57;1.07;;;0.80;;
12980;SDS011;6555;50.468;8.480;2023-04-23T19:50:03;1.23;;;0.70;;
12980;SDS011;6555;50.468;8.480;2023-04-23T19:55:11;0.70;;;0.60;;
12980;SDS011;6555;50.468;8.480;2023-04-23T20:00:18;1.00;;;0.87;;
12980;SDS011;6555;50.468;8.480;2023-04-23T20:05:21;2.23;;;0.87;;
12980;SDS011;6555;50.468;8.480;2023-04-23T20:10:26;1.00;;;0.70;;
12980;SDS011;6555;50.468;8.480;2023-04-23T20:15:32;1.30;;;0.77;;
12980;SDS011;6555;50.468;8.480;2023-04-23T20:20:35;0.77;;;0.73;;
12980;SDS011;6555;50.468;8.480;2023-04-23T20:25:44;0.87;;;0.87;;
12980;SDS011;6555;50.468;8.480;2023-04-23T20:30:48;0.70;;;0.70;;
12980;SDS011;6555;50.468;8.480;2023-04-23T20:35:52;0.60;;;0.43;;
12980;SDS011;6555;50.468;8.480;2023-04-23T20:40:58;1.53;;;1.00;;
12980;SDS011;6555;50.468;8.480;2023-04-23T20:46:03;0.97;;;0.87;;
12980;SDS011;6555;50.468;8.480;2023-04-23T20:51:09;2.73;;;0.80;;
12980;SDS011;6555;50.468;8.480;2023-04-23T20:56:14;1.93;;;1.00;;
12980;SDS011;6555;50.468;8.480;2023-04-23T21:01:18;0.70;;;0.60;;
12980;SDS011;6555;50.468;8.480;2023-04-23T21:06:22;0.57;;;0.57;;
12980;SDS011;6555;50.468;8.480;2023-04-23T21:11:27;0.87;;;0.63;;
12980;SDS011;6555;50.468;8.480;2023-04-23T21:16:31;0.93;;;0.70;;
12980;SDS011;6555;50.468;8.480;2023-04-23T21:21:36;0.60;;;0.53;;
12980;SDS011;6555;50.468;8.480;2023-04-23T21:26:41;1.07;;;0.63;;
12980;SDS011;6555;50.468;8.480;2023-04-23T21:31:44;0.70;;;0.70;;
12980;SDS011;6555;50.468;8.480;2023-04-23T21:36:57;0.50;;;0.50;;
12980;SDS011;6555;50.468;8.480;2023-04-23T21:42:04;0.57;;;0.57;;
12980;SDS011;6555;50.468;8.480;2023-04-23T21:47:08;1.17;;;0.60;;
12980;SDS011;6555;50.468;8.480;2023-04-23T21:52:12;0.80;;;0.67;;
12980;SDS011;6555;50.468;8.480;2023-04-23T21:57:19;0.50;;;0.50;;
12980;SDS011;6555;50.468;8.480;2023-04-23T22:02:22;1.00;;;0.80;;
12980;SDS011;6555;50.468;8.480;2023-04-23T22:07:26;1.03;;;0.67;;
12980;SDS011;6555;50.468;8.480;2023-04-23T22:12:32;0.20;;;0.20;;
12980;SDS011;6555;50.468;8.480;2023-04-23T22:17:35;2.00;;;0.70;;
12980;SDS011;6555;50.468;8.480;2023-04-23T22:22:40;0.63;;;0.60;;
12980;SDS011;6555;50.468;8.480;2023-04-23T22:27:45;0.50;;;0.50;;
12980;SDS011;6555;50.468;8.480;2023-04-23T22:32:52;0.93;;;0.70;;
12980;SDS011;6555;50.468;8.480;2023-04-23T22:37:55;0.60;;;0.50;;
12980;SDS011;6555;50.468;8.480;2023-04-23T22:43:00;0.50;;;0.50;;
12980;SDS011;6555;50.468;8.480;2023-04-23T22:48:03;0.40;;;0.40;;
12980;SDS011;6555;50.468;8.480;2023-04-23T22:53:07;0.53;;;0.53;;
12980;SDS011;6555;50.468;8.480;2023-04-23T22:58:11;0.50;;;0.50;;
12980;SDS011;6555;50.468;8.480;2023-04-23T23:03:17;0.53;;;0.53;;
12980;SDS011;6555;50.468;8.480;2023-04-23T23:08:30;0.90;;;0.67;;
12980;SDS011;6555;50.468;8.480;2023-04-23T23:13:35;1.00;;;0.77;;
12980;SDS011;6555;50.468;8.480;2023-04-23T23:18:40;1.20;;;0.80;;
12980;SDS011;6555;50.468;8.480;2023-04-23T23:23:50;0.80;;;0.77;;
12980;SDS011;6555;50.468;8.480;2023-04-23T23:28:55;0.50;;;0.50;;
12980;SDS011;6555;50.468;8.480;2023-04-23T23:34:00;1.30;;;1.07;;
12980;SDS011;6555;50.468;8.480;2023-04-23T23:39:04;0.70;;;0.70;;
12980;SDS011;6555;50.468;8.480;2023-04-23T23:44:10;0.60;;;0.57;;
12980;SDS011;6555;50.468;8.480;2023-04-23T23:49:13;1.03;;;0.70;;
12980;SDS011;6555;50.468;8.480;2023-04-23T23:54:16;0.83;;;0.70;;
12980;SDS011;6555;50.468;8.480;2023-04-23T23:59:21;0.60;;;0.60;;
